Terminal Aerodrome Forecast
Issued by NWS Louisville, KY

Home | Current Version | Previous Version | Text Only | Print | Product List | Glossary On
Versions: 1 2 3 4 5 6 7 8 9 10 11 12 13 14 15 16 17 18
000
FTUS43 KLMK 271700
TAFBWG
TAF
KBWG 271720Z 2718/2818 31010G15KT P6SM OVC021
     FM272100 30007KT P6SM BKN040
     FM280100 VRB03KT P6SM SCT250
     FM280800 16005KT P6SM BKN080=

USA.gov is the U.S. government's official web portal to all federal, state and local government web resources and services.